sensor_id;sensor_type;location;lat;lon;timestamp;temperature;humidity
40670;DHT22;26355;45.528;9.234;2023-07-24T00:01:28;29.10;99.90
40670;DHT22;26355;45.528;9.234;2023-07-24T00:03:53;29.10;99.90
40670;DHT22;26355;45.528;9.234;2023-07-24T00:06:20;29.10;99.90
40670;DHT22;26355;45.528;9.234;2023-07-24T00:08:45;29.00;99.90
40670;DHT22;26355;45.528;9.234;2023-07-24T00:11:11;29.00;99.90
40670;DHT22;26355;45.528;9.234;2023-07-24T00:13:36;29.00;99.90
40670;DHT22;26355;45.528;9.234;2023-07-24T00:16:07;29.00;99.90
40670;DHT22;26355;45.528;9.234;2023-07-24T00:18:32;29.00;99.90
40670;DHT22;26355;45.528;9.234;2023-07-24T00:20:58;29.00;99.90
40670;DHT22;26355;45.528;9.234;2023-07-24T00:23:24;29.00;99.90
40670;DHT22;26355;45.528;9.234;2023-07-24T00:25:49;29.00;99.90
40670;DHT22;26355;45.528;9.234;2023-07-24T00:28:15;28.90;99.90
40670;DHT22;26355;45.528;9.234;2023-07-24T00:30:40;28.90;99.90
40670;DHT22;26355;45.528;9.234;2023-07-24T00:33:07;28.90;99.90
40670;DHT22;26355;45.528;9.234;2023-07-24T00:35:33;28.90;99.90
40670;DHT22;26355;45.528;9.234;2023-07-24T00:37:58;29.00;99.90
40670;DHT22;26355;45.528;9.234;2023-07-24T00:40:24;28.90;99.90
40670;DHT22;26355;45.528;9.234;2023-07-24T00:42:49;28.90;99.90
40670;DHT22;26355;45.528;9.234;2023-07-24T00:45:15;28.90;99.90
40670;DHT22;26355;45.528;9.234;2023-07-24T00:47:42;28.90;99.90
40670;DHT22;26355;45.528;9.234;2023-07-24T00:50:08;28.80;99.90
40670;DHT22;26355;45.528;9.234;2023-07-24T00:52:34;28.70;99.90
40670;DHT22;26355;45.528;9.234;2023-07-24T00:55:00;28.80;99.90
40670;DHT22;26355;45.528;9.234;2023-07-24T00:57:26;28.80;99.90
40670;DHT22;26355;45.528;9.234;2023-07-24T00:59:52;28.80;99.90
40670;DHT22;26355;45.528;9.234;2023-07-24T01:02:17;28.70;99.90
40670;DHT22;26355;45.528;9.234;2023-07-24T01:04:43;28.70;99.90
40670;DHT22;26355;45.528;9.234;2023-07-24T01:07:09;28.70;99.90
40670;DHT22;26355;45.528;9.234;2023-07-24T01:09:34;28.70;99.90
40670;DHT22;26355;45.528;9.234;2023-07-24T01:12:10;28.60;99.90
40670;DHT22;26355;45.528;9.234;2023-07-24T01:14:46;28.60;99.90
40670;DHT22;26355;45.528;9.234;2023-07-24T01:17:15;28.60;99.90
40670;DHT22;26355;45.528;9.234;2023-07-24T01:19:47;28.60;99.90
40670;DHT22;26355;45.528;9.234;2023-07-24T01:27:26;28.20;99.90
40670;DHT22;26355;45.528;9.234;2023-07-24T01:29:51;28.20;99.90
40670;DHT22;26355;45.528;9.234;2023-07-24T01:32:18;28.20;99.90
40670;DHT22;26355;45.528;9.234;2023-07-24T01:34:44;28.20;99.90
40670;DHT22;26355;45.528;9.234;2023-07-24T01:37:11;28.10;99.90
40670;DHT22;26355;45.528;9.234;2023-07-24T01:39:37;28.20;99.90
40670;DHT22;26355;45.528;9.234;2023-07-24T01:42:04;28.20;99.90
40670;DHT22;26355;45.528;9.234;2023-07-24T01:44:30;28.30;99.90
40670;DHT22;26355;45.528;9.234;2023-07-24T01:46:55;28.30;99.90
40670;DHT22;26355;45.528;9.234;2023-07-24T01:49:21;28.30;99.90
40670;DHT22;26355;45.528;9.234;2023-07-24T01:51:46;28.30;99.90
40670;DHT22;26355;45.528;9.234;2023-07-24T01:54:12;28.30;99.90
40670;DHT22;26355;45.528;9.234;2023-07-24T01:56:37;28.30;99.90
40670;DHT22;26355;45.528;9.234;2023-07-24T01:59:05;28.20;99.90
40670;DHT22;26355;45.528;9.234;2023-07-24T02:01:31;28.10;99.90
40670;DHT22;26355;45.528;9.234;2023-07-24T02:03:59;28.10;99.90
40670;DHT22;26355;45.528;9.234;2023-07-24T02:06:25;28.10;99.90
40670;DHT22;26355;45.528;9.234;2023-07-24T02:08:51;28.10;99.90
40670;DHT22;26355;45.528;9.234;2023-07-24T02:11:17;28.10;99.90
40670;DHT22;26355;45.528;9.234;2023-07-24T02:13:46;28.10;99.90
40670;DHT22;26355;45.528;9.234;2023-07-24T02:16:12;28.10;99.90
40670;DHT22;26355;45.528;9.234;2023-07-24T02:18:40;28.10;99.90
40670;DHT22;26355;45.528;9.234;2023-07-24T02:21:06;28.10;99.90
40670;DHT22;26355;45.528;9.234;2023-07-24T02:23:31;28.00;99.90
40670;DHT22;26355;45.528;9.234;2023-07-24T02:25:57;28.00;99.90
40670;DHT22;26355;45.528;9.234;2023-07-24T02:28:23;28.00;99.90
40670;DHT22;26355;45.528;9.234;2023-07-24T02:30:48;28.00;99.90
40670;DHT22;26355;45.528;9.234;2023-07-24T02:33:14;27.90;99.90
40670;DHT22;26355;45.528;9.234;2023-07-24T02:35:40;27.90;99.90
40670;DHT22;26355;45.528;9.234;2023-07-24T02:38:06;27.80;99.90
40670;DHT22;26355;45.528;9.234;2023-07-24T02:40:32;27.80;99.90
40670;DHT22;26355;45.528;9.234;2023-07-24T02:42:58;27.90;99.90
40670;DHT22;26355;45.528;9.234;2023-07-24T02:45:24;27.80;99.90
40670;DHT22;26355;45.528;9.234;2023-07-24T02:47:49;27.80;99.90
40670;DHT22;26355;45.528;9.234;2023-07-24T02:50:15;27.80;99.90
40670;DHT22;26355;45.528;9.234;2023-07-24T02:52:40;27.80;99.90
40670;DHT22;26355;45.528;9.234;2023-07-24T02:55:06;27.90;99.90
40670;DHT22;26355;45.528;9.234;2023-07-24T02:57:32;27.80;99.90
40670;DHT22;26355;45.528;9.234;2023-07-24T02:59:57;27.80;99.90
40670;DHT22;26355;45.528;9.234;2023-07-24T03:02:23;27.80;99.90
40670;DHT22;26355;45.528;9.234;2023-07-24T03:04:48;27.80;99.90
40670;DHT22;26355;45.528;9.234;2023-07-24T03:07:14;27.70;99.90
40670;DHT22;26355;45.528;9.234;2023-07-24T03:09:39;27.70;99.90
40670;DHT22;26355;45.528;9.234;2023-07-24T03:12:05;27.60;99.90
40670;DHT22;26355;45.528;9.234;2023-07-24T03:14:31;27.60;99.90
40670;DHT22;26355;45.528;9.234;2023-07-24T03:16:56;27.60;99.90
40670;DHT22;26355;45.528;9.234;2023-07-24T03:19:22;27.60;99.90
40670;DHT22;26355;45.528;9.234;2023-07-24T03:21:48;27.60;99.90
40670;DHT22;26355;45.528;9.234;2023-07-24T03:24:13;27.60;99.90
40670;DHT22;26355;45.528;9.234;2023-07-24T03:26:39;27.60;99.90
40670;DHT22;26355;45.528;9.234;2023-07-24T03:29:04;27.60;99.90
40670;DHT22;26355;45.528;9.234;2023-07-24T03:31:30;27.50;99.90
40670;DHT22;26355;45.528;9.234;2023-07-24T03:33:56;27.50;99.90
40670;DHT22;26355;45.528;9.234;2023-07-24T03:36:21;27.50;99.90
40670;DHT22;26355;45.528;9.234;2023-07-24T03:38:47;27.50;99.90
40670;DHT22;26355;45.528;9.234;2023-07-24T03:41:12;27.50;99.90
40670;DHT22;26355;45.528;9.234;2023-07-24T03:43:38;27.50;99.90
40670;DHT22;26355;45.528;9.234;2023-07-24T03:46:03;27.40;99.90
40670;DHT22;26355;45.528;9.234;2023-07-24T03:48:29;27.40;99.90
40670;DHT22;26355;45.528;9.234;2023-07-24T03:50:59;27.40;99.90
40670;DHT22;26355;45.528;9.234;2023-07-24T03:53:25;27.40;99.90
40670;DHT22;26355;45.528;9.234;2023-07-24T03:55:51;27.40;99.90
40670;DHT22;26355;45.528;9.234;2023-07-24T03:58:16;27.40;99.90
40670;DHT22;26355;45.528;9.234;2023-07-24T04:00:42;27.40;99.90
40670;DHT22;26355;45.528;9.234;2023-07-24T04:03:07;27.40;99.90
40670;DHT22;26355;45.528;9.234;2023-07-24T04:05:34;27.30;99.90
40670;DHT22;26355;45.528;9.234;2023-07-24T04:08:00;27.30;99.90
40670;DHT22;26355;45.528;9.234;2023-07-24T04:10:26;27.20;99.90
40670;DHT22;26355;45.528;9.234;2023-07-24T04:12:51;27.30;99.90
40670;DHT22;26355;45.528;9.234;2023-07-24T04:15:17;27.30;99.90
40670;DHT22;26355;45.528;9.234;2023-07-24T04:17:43;27.30;99.90
40670;DHT22;26355;45.528;9.234;2023-07-24T04:20:09;27.30;99.90
40670;DHT22;26355;45.528;9.234;2023-07-24T04:22:34;27.30;99.90
40670;DHT22;26355;45.528;9.234;2023-07-24T04:25:00;27.30;99.90
40670;DHT22;26355;45.528;9.234;2023-07-24T04:27:26;27.20;99.90
40670;DHT22;26355;45.528;9.234;2023-07-24T04:29:51;27.30;99.90
40670;DHT22;26355;45.528;9.234;2023-07-24T04:32:17;27.30;99.90
40670;DHT22;26355;45.528;9.234;2023-07-24T04:34:43;27.30;99.90
40670;DHT22;26355;45.528;9.234;2023-07-24T04:37:08;27.20;99.90
40670;DHT22;26355;45.528;9.234;2023-07-24T04:39:34;27.20;99.90
40670;DHT22;26355;45.528;9.234;2023-07-24T04:41:59;27.30;99.90
40670;DHT22;26355;45.528;9.234;2023-07-24T04:44:25;27.20;99.90
40670;DHT22;26355;45.528;9.234;2023-07-24T04:46:50;27.30;99.90
40670;DHT22;26355;45.528;9.234;2023-07-24T04:49:16;27.30;99.90
40670;DHT22;26355;45.528;9.234;2023-07-24T04:51:42;27.30;99.90
40670;DHT22;26355;45.528;9.234;2023-07-24T04:54:07;27.30;99.90
40670;DHT22;26355;45.528;9.234;2023-07-24T04:56:33;27.30;99.90
40670;DHT22;26355;45.528;9.234;2023-07-24T04:58:58;27.30;99.90
40670;DHT22;26355;45.528;9.234;2023-07-24T05:01:24;27.30;99.90
40670;DHT22;26355;45.528;9.234;2023-07-24T05:03:49;27.30;99.90
40670;DHT22;26355;45.528;9.234;2023-07-24T05:06:15;27.20;99.90
40670;DHT22;26355;45.528;9.234;2023-07-24T05:08:41;27.20;99.90
40670;DHT22;26355;45.528;9.234;2023-07-24T05:11:06;27.00;99.90
40670;DHT22;26355;45.528;9.234;2023-07-24T05:13:32;27.00;99.90
40670;DHT22;26355;45.528;9.234;2023-07-24T05:15:57;27.00;99.90
40670;DHT22;26355;45.528;9.234;2023-07-24T05:18:23;27.00;99.90
40670;DHT22;26355;45.528;9.234;2023-07-24T05:20:49;26.90;99.90
40670;DHT22;26355;45.528;9.234;2023-07-24T05:23:16;26.90;99.90
40670;DHT22;26355;45.528;9.234;2023-07-24T05:25:42;26.90;99.90
40670;DHT22;26355;45.528;9.234;2023-07-24T05:28:08;26.90;99.90
40670;DHT22;26355;45.528;9.234;2023-07-24T05:30:34;27.00;99.90
40670;DHT22;26355;45.528;9.234;2023-07-24T05:33:00;26.90;99.90
40670;DHT22;26355;45.528;9.234;2023-07-24T05:35:26;27.00;99.90
40670;DHT22;26355;45.528;9.234;2023-07-24T05:37:51;27.00;99.90
40670;DHT22;26355;45.528;9.234;2023-07-24T05:40:17;27.10;99.90
40670;DHT22;26355;45.528;9.234;2023-07-24T05:42:42;27.10;99.90
40670;DHT22;26355;45.528;9.234;2023-07-24T05:45:09;27.10;99.90
40670;DHT22;26355;45.528;9.234;2023-07-24T05:47:36;27.10;99.90
40670;DHT22;26355;45.528;9.234;2023-07-24T05:50:02;27.10;99.90
40670;DHT22;26355;45.528;9.234;2023-07-24T05:52:27;27.00;99.90
40670;DHT22;26355;45.528;9.234;2023-07-24T05:54:54;27.10;99.90
40670;DHT22;26355;45.528;9.234;2023-07-24T05:57:19;27.20;99.90
40670;DHT22;26355;45.528;9.234;2023-07-24T05:59:45;27.30;99.90
40670;DHT22;26355;45.528;9.234;2023-07-24T06:02:11;27.40;99.90
40670;DHT22;26355;45.528;9.234;2023-07-24T06:04:36;27.50;99.90
40670;DHT22;26355;45.528;9.234;2023-07-24T06:07:02;27.60;99.90
40670;DHT22;26355;45.528;9.234;2023-07-24T06:09:27;27.60;99.90
40670;DHT22;26355;45.528;9.234;2023-07-24T06:11:53;27.60;99.90
40670;DHT22;26355;45.528;9.234;2023-07-24T06:14:19;27.80;99.90
40670;DHT22;26355;45.528;9.234;2023-07-24T06:16:45;27.80;99.90
40670;DHT22;26355;45.528;9.234;2023-07-24T06:19:10;27.80;99.90
40670;DHT22;26355;45.528;9.234;2023-07-24T06:21:36;27.90;99.90
40670;DHT22;26355;45.528;9.234;2023-07-24T06:26:46;27.80;99.90
40670;DHT22;26355;45.528;9.234;2023-07-24T06:29:11;27.70;99.90
40670;DHT22;26355;45.528;9.234;2023-07-24T06:31:37;27.70;99.90
40670;DHT22;26355;45.528;9.234;2023-07-24T06:34:03;27.70;99.90
40670;DHT22;26355;45.528;9.234;2023-07-24T06:36:28;27.50;99.90
40670;DHT22;26355;45.528;9.234;2023-07-24T06:38:54;27.40;99.90
40670;DHT22;26355;45.528;9.234;2023-07-24T06:41:19;27.40;99.90
40670;DHT22;26355;45.528;9.234;2023-07-24T06:43:46;27.30;99.90
40670;DHT22;26355;45.528;9.234;2023-07-24T06:46:12;27.30;99.90
40670;DHT22;26355;45.528;9.234;2023-07-24T06:48:38;27.30;99.90
40670;DHT22;26355;45.528;9.234;2023-07-24T06:51:03;27.30;99.90
40670;DHT22;26355;45.528;9.234;2023-07-24T06:53:29;27.20;99.90
40670;DHT22;26355;45.528;9.234;2023-07-24T06:55:54;27.20;99.90
40670;DHT22;26355;45.528;9.234;2023-07-24T06:58:20;27.40;99.90
40670;DHT22;26355;45.528;9.234;2023-07-24T07:00:45;27.50;99.90
40670;DHT22;26355;45.528;9.234;2023-07-24T07:03:11;27.60;99.90
40670;DHT22;26355;45.528;9.234;2023-07-24T07:05:36;27.80;99.90
40670;DHT22;26355;45.528;9.234;2023-07-24T07:08:02;28.00;99.90
40670;DHT22;26355;45.528;9.234;2023-07-24T07:10:28;28.20;99.90
40670;DHT22;26355;45.528;9.234;2023-07-24T07:12:53;28.30;99.90
40670;DHT22;26355;45.528;9.234;2023-07-24T07:15:20;28.40;99.90
40670;DHT22;26355;45.528;9.234;2023-07-24T07:17:45;28.30;99.90
40670;DHT22;26355;45.528;9.234;2023-07-24T07:20:11;28.30;99.90
40670;DHT22;26355;45.528;9.234;2023-07-24T07:22:37;28.40;99.90
40670;DHT22;26355;45.528;9.234;2023-07-24T07:25:02;28.40;99.90
40670;DHT22;26355;45.528;9.234;2023-07-24T07:27:28;28.30;99.90
40670;DHT22;26355;45.528;9.234;2023-07-24T07:29:54;28.20;99.90
40670;DHT22;26355;45.528;9.234;2023-07-24T07:32:19;28.10;99.90
40670;DHT22;26355;45.528;9.234;2023-07-24T07:34:45;28.10;99.90
40670;DHT22;26355;45.528;9.234;2023-07-24T07:37:10;28.20;99.90
40670;DHT22;26355;45.528;9.234;2023-07-24T07:39:36;28.30;99.90
40670;DHT22;26355;45.528;9.234;2023-07-24T07:42:01;28.40;99.90
40670;DHT22;26355;45.528;9.234;2023-07-24T07:44:27;28.50;99.90
40670;DHT22;26355;45.528;9.234;2023-07-24T07:46:52;28.70;99.90
40670;DHT22;26355;45.528;9.234;2023-07-24T07:49:18;28.80;99.90
40670;DHT22;26355;45.528;9.234;2023-07-24T07:51:43;28.80;99.90
40670;DHT22;26355;45.528;9.234;2023-07-24T07:54:09;28.90;99.90
40670;DHT22;26355;45.528;9.234;2023-07-24T07:56:35;28.90;99.90
40670;DHT22;26355;45.528;9.234;2023-07-24T07:59:00;29.00;99.90
40670;DHT22;26355;45.528;9.234;2023-07-24T08:01:26;29.10;99.90
40670;DHT22;26355;45.528;9.234;2023-07-24T08:03:51;29.20;99.90
40670;DHT22;26355;45.528;9.234;2023-07-24T08:06:17;29.30;99.90
40670;DHT22;26355;45.528;9.234;2023-07-24T08:08:42;29.30;99.90
40670;DHT22;26355;45.528;9.234;2023-07-24T08:11:08;29.40;99.90
40670;DHT22;26355;45.528;9.234;2023-07-24T08:13:34;29.40;99.90
40670;DHT22;26355;45.528;9.234;2023-07-24T08:16:00;29.30;99.90
40670;DHT22;26355;45.528;9.234;2023-07-24T08:18:27;29.30;99.90
40670;DHT22;26355;45.528;9.234;2023-07-24T08:20:53;29.20;99.90
40670;DHT22;26355;45.528;9.234;2023-07-24T08:23:18;29.00;99.90
40670;DHT22;26355;45.528;9.234;2023-07-24T08:25:56;28.90;99.90
40670;DHT22;26355;45.528;9.234;2023-07-24T08:28:21;29.00;99.90
40670;DHT22;26355;45.528;9.234;2023-07-24T08:30:56;29.00;99.90
40670;DHT22;26355;45.528;9.234;2023-07-24T08:33:23;29.10;99.90
40670;DHT22;26355;45.528;9.234;2023-07-24T08:36:01;29.20;99.90
40670;DHT22;26355;45.528;9.234;2023-07-24T08:38:27;29.30;99.90
40670;DHT22;26355;45.528;9.234;2023-07-24T08:43:29;29.50;99.90
40670;DHT22;26355;45.528;9.234;2023-07-24T08:45:59;29.40;99.90
40670;DHT22;26355;45.528;9.234;2023-07-24T08:48:38;29.50;99.90
40670;DHT22;26355;45.528;9.234;2023-07-24T08:51:05;29.50;99.90
40670;DHT22;26355;45.528;9.234;2023-07-24T08:53:30;29.40;99.90
40670;DHT22;26355;45.528;9.234;2023-07-24T08:55:57;29.50;99.90
40670;DHT22;26355;45.528;9.234;2023-07-24T08:58:24;29.60;99.90
40670;DHT22;26355;45.528;9.234;2023-07-24T09:00:50;29.50;99.90
40670;DHT22;26355;45.528;9.234;2023-07-24T09:03:18;29.60;99.90
40670;DHT22;26355;45.528;9.234;2023-07-24T09:05:44;29.70;99.90
40670;DHT22;26355;45.528;9.234;2023-07-24T09:08:10;29.80;99.90
40670;DHT22;26355;45.528;9.234;2023-07-24T09:10:35;29.80;99.90
40670;DHT22;26355;45.528;9.234;2023-07-24T09:13:01;29.90;99.90
40670;DHT22;26355;45.528;9.234;2023-07-24T09:15:38;29.90;99.90
40670;DHT22;26355;45.528;9.234;2023-07-24T09:18:04;30.00;99.90
40670;DHT22;26355;45.528;9.234;2023-07-24T09:20:38;30.00;99.90
40670;DHT22;26355;45.528;9.234;2023-07-24T09:23:04;29.90;99.90
40670;DHT22;26355;45.528;9.234;2023-07-24T09:25:34;29.80;99.90
40670;DHT22;26355;45.528;9.234;2023-07-24T09:28:00;29.70;99.90
40670;DHT22;26355;45.528;9.234;2023-07-24T09:30:26;29.50;99.90
40670;DHT22;26355;45.528;9.234;2023-07-24T09:32:55;29.40;99.90
40670;DHT22;26355;45.528;9.234;2023-07-24T09:35:21;29.30;99.90
40670;DHT22;26355;45.528;9.234;2023-07-24T09:38:02;29.40;99.90
40670;DHT22;26355;45.528;9.234;2023-07-24T09:40:27;29.40;99.90
40670;DHT22;26355;45.528;9.234;2023-07-24T09:42:53;29.30;99.90
40670;DHT22;26355;45.528;9.234;2023-07-24T09:45:19;29.30;99.90
40670;DHT22;26355;45.528;9.234;2023-07-24T09:47:44;29.40;99.90
40670;DHT22;26355;45.528;9.234;2023-07-24T09:50:11;29.50;99.90
40670;DHT22;26355;45.528;9.234;2023-07-24T09:52:37;29.70;99.90
40670;DHT22;26355;45.528;9.234;2023-07-24T09:55:15;29.90;99.90
40670;DHT22;26355;45.528;9.234;2023-07-24T09:57:41;30.00;99.90
40670;DHT22;26355;45.528;9.234;2023-07-24T10:00:09;30.00;99.90
40670;DHT22;26355;45.528;9.234;2023-07-24T10:02:37;30.00;99.90
40670;DHT22;26355;45.528;9.234;2023-07-24T10:05:02;29.90;99.90
40670;DHT22;26355;45.528;9.234;2023-07-24T10:07:28;29.90;99.90
40670;DHT22;26355;45.528;9.234;2023-07-24T10:09:55;30.00;99.90
40670;DHT22;26355;45.528;9.234;2023-07-24T10:12:20;30.00;99.90
40670;DHT22;26355;45.528;9.234;2023-07-24T10:14:47;30.00;99.90
40670;DHT22;26355;45.528;9.234;2023-07-24T10:17:13;29.70;99.90
40670;DHT22;26355;45.528;9.234;2023-07-24T10:19:40;29.80;99.90
40670;DHT22;26355;45.528;9.234;2023-07-24T10:22:09;29.70;99.90
40670;DHT22;26355;45.528;9.234;2023-07-24T10:24:35;29.60;99.90
40670;DHT22;26355;45.528;9.234;2023-07-24T10:27:03;29.40;99.90
40670;DHT22;26355;45.528;9.234;2023-07-24T10:29:28;29.40;99.90
40670;DHT22;26355;45.528;9.234;2023-07-24T10:31:55;29.30;99.90
40670;DHT22;26355;45.528;9.234;2023-07-24T10:34:20;29.20;99.90
40670;DHT22;26355;45.528;9.234;2023-07-24T10:36:46;29.20;99.90
40670;DHT22;26355;45.528;9.234;2023-07-24T10:39:16;29.10;99.90
40670;DHT22;26355;45.528;9.234;2023-07-24T10:41:45;28.90;99.90
40670;DHT22;26355;45.528;9.234;2023-07-24T10:44:11;28.70;99.90
40670;DHT22;26355;45.528;9.234;2023-07-24T10:46:41;28.50;99.90
40670;DHT22;26355;45.528;9.234;2023-07-24T10:49:11;28.40;99.90
40670;DHT22;26355;45.528;9.234;2023-07-24T10:51:36;28.40;99.90
40670;DHT22;26355;45.528;9.234;2023-07-24T10:54:05;28.40;99.90
40670;DHT22;26355;45.528;9.234;2023-07-24T10:56:31;28.40;99.90
40670;DHT22;26355;45.528;9.234;2023-07-24T10:59:01;28.30;99.90
40670;DHT22;26355;45.528;9.234;2023-07-24T11:01:27;28.30;99.90
40670;DHT22;26355;45.528;9.234;2023-07-24T11:03:54;28.20;99.90
40670;DHT22;26355;45.528;9.234;2023-07-24T11:06:20;28.10;99.90
40670;DHT22;26355;45.528;9.234;2023-07-24T11:08:52;28.10;99.90
40670;DHT22;26355;45.528;9.234;2023-07-24T11:11:18;28.10;99.90
40670;DHT22;26355;45.528;9.234;2023-07-24T11:13:44;28.10;99.90
40670;DHT22;26355;45.528;9.234;2023-07-24T11:16:09;28.20;99.90
40670;DHT22;26355;45.528;9.234;2023-07-24T11:18:48;28.10;99.90
40670;DHT22;26355;45.528;9.234;2023-07-24T11:21:14;28.20;99.90
40670;DHT22;26355;45.528;9.234;2023-07-24T11:23:49;28.30;99.90
40670;DHT22;26355;45.528;9.234;2023-07-24T11:26:15;28.30;99.90
40670;DHT22;26355;45.528;9.234;2023-07-24T11:28:41;28.30;99.90
40670;DHT22;26355;45.528;9.234;2023-07-24T11:31:07;28.30;99.90
40670;DHT22;26355;45.528;9.234;2023-07-24T11:33:32;28.20;99.90
40670;DHT22;26355;45.528;9.234;2023-07-24T11:35:59;28.00;99.90
40670;DHT22;26355;45.528;9.234;2023-07-24T11:38:24;28.00;99.90
40670;DHT22;26355;45.528;9.234;2023-07-24T11:40:50;28.00;99.90
40670;DHT22;26355;45.528;9.234;2023-07-24T11:43:23;27.80;99.90
40670;DHT22;26355;45.528;9.234;2023-07-24T11:45:51;27.70;99.90
40670;DHT22;26355;45.528;9.234;2023-07-24T11:48:18;27.60;99.90
40670;DHT22;26355;45.528;9.234;2023-07-24T11:50:49;27.50;99.90
40670;DHT22;26355;45.528;9.234;2023-07-24T11:53:31;27.50;99.90
40670;DHT22;26355;45.528;9.234;2023-07-24T11:55:58;27.60;99.90
40670;DHT22;26355;45.528;9.234;2023-07-24T11:58:28;27.60;99.90
40670;DHT22;26355;45.528;9.234;2023-07-24T12:00:54;27.70;99.90
40670;DHT22;26355;45.528;9.234;2023-07-24T12:03:22;27.50;99.90
40670;DHT22;26355;45.528;9.234;2023-07-24T12:05:48;26.30;99.90
40670;DHT22;26355;45.528;9.234;2023-07-24T12:08:13;25.40;99.90
40670;DHT22;26355;45.528;9.234;2023-07-24T12:10:40;25.00;99.90
40670;DHT22;26355;45.528;9.234;2023-07-24T12:13:06;24.80;99.90
40670;DHT22;26355;45.528;9.234;2023-07-24T12:15:32;24.70;99.90
40670;DHT22;26355;45.528;9.234;2023-07-24T12:18:01;24.80;99.90
40670;DHT22;26355;45.528;9.234;2023-07-24T12:20:27;24.80;99.90
40670;DHT22;26355;45.528;9.234;2023-07-24T12:22:53;24.80;99.90
40670;DHT22;26355;45.528;9.234;2023-07-24T12:25:19;24.70;99.90
40670;DHT22;26355;45.528;9.234;2023-07-24T12:27:46;24.70;99.90
40670;DHT22;26355;45.528;9.234;2023-07-24T12:30:12;24.70;99.90
40670;DHT22;26355;45.528;9.234;2023-07-24T12:32:37;24.60;99.90
40670;DHT22;26355;45.528;9.234;2023-07-24T12:35:03;24.50;99.90
40670;DHT22;26355;45.528;9.234;2023-07-24T12:37:30;24.40;99.90
40670;DHT22;26355;45.528;9.234;2023-07-24T12:39:55;24.30;99.90
40670;DHT22;26355;45.528;9.234;2023-07-24T12:42:21;24.30;99.90
40670;DHT22;26355;45.528;9.234;2023-07-24T12:44:46;24.30;99.90
40670;DHT22;26355;45.528;9.234;2023-07-24T12:47:12;24.30;99.90
40670;DHT22;26355;45.528;9.234;2023-07-24T12:49:38;24.30;99.90
40670;DHT22;26355;45.528;9.234;2023-07-24T12:52:04;24.30;99.90
40670;DHT22;26355;45.528;9.234;2023-07-24T12:54:31;24.30;99.90
40670;DHT22;26355;45.528;9.234;2023-07-24T12:56:57;24.20;99.90
40670;DHT22;26355;45.528;9.234;2023-07-24T12:59:23;24.20;99.90
40670;DHT22;26355;45.528;9.234;2023-07-24T13:01:48;24.20;99.90
40670;DHT22;26355;45.528;9.234;2023-07-24T13:04:14;24.20;99.90
40670;DHT22;26355;45.528;9.234;2023-07-24T13:06:39;24.30;99.90
40670;DHT22;26355;45.528;9.234;2023-07-24T13:09:05;24.20;99.90
40670;DHT22;26355;45.528;9.234;2023-07-24T13:11:31;24.20;99.90
40670;DHT22;26355;45.528;9.234;2023-07-24T13:13:57;24.30;99.90
40670;DHT22;26355;45.528;9.234;2023-07-24T13:16:23;24.30;99.90
40670;DHT22;26355;45.528;9.234;2023-07-24T13:18:48;24.30;99.90
40670;DHT22;26355;45.528;9.234;2023-07-24T13:21:14;24.30;99.90
40670;DHT22;26355;45.528;9.234;2023-07-24T13:23:43;24.40;99.90
40670;DHT22;26355;45.528;9.234;2023-07-24T13:26:09;24.40;99.90
40670;DHT22;26355;45.528;9.234;2023-07-24T13:28:36;24.50;99.90
40670;DHT22;26355;45.528;9.234;2023-07-24T13:31:16;24.60;99.90
40670;DHT22;26355;45.528;9.234;2023-07-24T13:33:42;24.60;99.90
40670;DHT22;26355;45.528;9.234;2023-07-24T13:36:08;24.70;99.90
40670;DHT22;26355;45.528;9.234;2023-07-24T13:38:34;24.80;99.90
40670;DHT22;26355;45.528;9.234;2023-07-24T13:40:59;24.80;99.90
40670;DHT22;26355;45.528;9.234;2023-07-24T13:43:26;24.80;99.90
40670;DHT22;26355;45.528;9.234;2023-07-24T13:45:51;25.00;99.90
40670;DHT22;26355;45.528;9.234;2023-07-24T13:48:17;25.00;99.90
40670;DHT22;26355;45.528;9.234;2023-07-24T13:50:42;25.10;99.90
40670;DHT22;26355;45.528;9.234;2023-07-24T13:53:08;25.20;99.90
40670;DHT22;26355;45.528;9.234;2023-07-24T13:55:33;25.30;99.90
40670;DHT22;26355;45.528;9.234;2023-07-24T13:57:59;25.30;99.90
40670;DHT22;26355;45.528;9.234;2023-07-24T14:00:26;25.40;99.90
40670;DHT22;26355;45.528;9.234;2023-07-24T14:02:51;25.40;99.90
40670;DHT22;26355;45.528;9.234;2023-07-24T14:05:17;25.60;99.90
40670;DHT22;26355;45.528;9.234;2023-07-24T14:07:43;25.60;99.90
40670;DHT22;26355;45.528;9.234;2023-07-24T14:10:10;25.70;99.90
40670;DHT22;26355;45.528;9.234;2023-07-24T14:12:35;25.80;99.90
40670;DHT22;26355;45.528;9.234;2023-07-24T14:15:01;25.90;99.90
40670;DHT22;26355;45.528;9.234;2023-07-24T14:17:27;26.00;99.90
40670;DHT22;26355;45.528;9.234;2023-07-24T14:19:54;26.00;99.90
40670;DHT22;26355;45.528;9.234;2023-07-24T14:22:20;25.90;99.90
40670;DHT22;26355;45.528;9.234;2023-07-24T14:24:45;26.00;99.90
40670;DHT22;26355;45.528;9.234;2023-07-24T14:27:13;26.00;99.90
40670;DHT22;26355;45.528;9.234;2023-07-24T14:29:39;26.10;99.90
40670;DHT22;26355;45.528;9.234;2023-07-24T14:32:05;26.10;99.90
40670;DHT22;26355;45.528;9.234;2023-07-24T14:34:31;26.20;99.90
40670;DHT22;26355;45.528;9.234;2023-07-24T14:36:56;26.30;99.90
40670;DHT22;26355;45.528;9.234;2023-07-24T14:39:22;26.20;99.90
40670;DHT22;26355;45.528;9.234;2023-07-24T14:41:48;26.30;99.90
40670;DHT22;26355;45.528;9.234;2023-07-24T14:44:13;26.40;99.90
40670;DHT22;26355;45.528;9.234;2023-07-24T14:46:39;26.40;99.90
40670;DHT22;26355;45.528;9.234;2023-07-24T14:49:04;26.40;99.90
40670;DHT22;26355;45.528;9.234;2023-07-24T14:51:30;26.40;99.90
40670;DHT22;26355;45.528;9.234;2023-07-24T14:53:56;26.40;99.90
40670;DHT22;26355;45.528;9.234;2023-07-24T14:56:21;26.40;99.90
40670;DHT22;26355;45.528;9.234;2023-07-24T14:58:47;26.50;99.90
40670;DHT22;26355;45.528;9.234;2023-07-24T15:01:13;26.50;99.90
40670;DHT22;26355;45.528;9.234;2023-07-24T15:03:38;26.40;99.90
40670;DHT22;26355;45.528;9.234;2023-07-24T15:06:04;26.40;99.90
40670;DHT22;26355;45.528;9.234;2023-07-24T15:08:32;26.40;99.90
40670;DHT22;26355;45.528;9.234;2023-07-24T15:10:58;26.50;99.90
40670;DHT22;26355;45.528;9.234;2023-07-24T15:13:23;26.40;99.90
40670;DHT22;26355;45.528;9.234;2023-07-24T15:15:49;26.50;99.90
40670;DHT22;26355;45.528;9.234;2023-07-24T15:18:15;26.50;99.90
40670;DHT22;26355;45.528;9.234;2023-07-24T15:20:41;26.50;99.90
40670;DHT22;26355;45.528;9.234;2023-07-24T15:23:06;26.50;99.90
40670;DHT22;26355;45.528;9.234;2023-07-24T15:25:32;26.50;99.90
40670;DHT22;26355;45.528;9.234;2023-07-24T15:27:58;26.60;99.90
40670;DHT22;26355;45.528;9.234;2023-07-24T15:30:24;26.60;99.90
40670;DHT22;26355;45.528;9.234;2023-07-24T15:32:50;26.70;99.90
40670;DHT22;26355;45.528;9.234;2023-07-24T15:35:15;26.70;99.90